Nelson, Ohio
Current Conditions -  °F | °C
As of 6:21 AM on Friday 28 Nov 2014 (Local Time) from KPOV Reporting Station
Broken Clouds Broken Clouds  
Wind Chill: 10°   Ceiling: 4100
Heat Index: 21°   Visibility: 10mi
Dew Point: 11°   Wind: 9mph
Humidity: 67%   Direction: 270°W
Pressure: 30.3"   Gusts: 18mph
Location:  41.3076°N, 81.0739°W
Report Text: KPOV 281121Z AUTO 27008G16KT 10SM SCT028 SCT033 BKN041 M06/M11 A3030 RMK AO2 T10631115
Loading
Personal Weather Stations






























Interactive Weather Map New forecast layout! Learn more

10-Day Weather Forecast

Advertisements
Track Severe Weather on mobile